Time;durP1;ratioP1;P1;durP2;ratioP2;P2;SDS_P1;SDS_P2;PMS_P1;PMS_P2;Temp;Humidity;BMP_temperature;BMP_pressure;BME280_temperature;BME280_humidity;BME280_pressure;Samples;Min_cycle;Max_cycle;Signal;HPM_P1;HPM_P2
2021/12/18 00:00:46;;;;;;;;;;;27.30;99.90;;;;;;5072998;28;20248;-75
2021/12/18 00:03:13;;;;;;;;;;;27.40;99.90;;;;;;5072477;28;19916;-76
2021/12/18 00:05:40;;;;;;;;;;;27.50;99.90;;;;;;5072698;28;19975;-74
2021/12/18 00:08:06;;;;;;;;;;;27.50;99.90;;;;;;5072593;28;19916;-72
2021/12/18 00:10:34;;;;;;;;;;;27.50;99.90;;;;;;5072867;28;20466;-73
2021/12/18 00:13:01;;;;;;;;;;;27.40;99.90;;;;;;5072660;28;20252;-76
2021/12/18 00:15:27;;;;;;;;;;;27.50;99.90;;;;;;5073091;28;19916;-74
2021/12/18 00:17:54;;;;;;;;;;;27.50;99.90;;;;;;5071919;28;19921;-76
2021/12/18 00:20:21;;;;;;;;;;;27.50;99.90;;;;;;5072718;28;19966;-74
2021/12/18 00:22:48;;;;;;;;;;;27.60;99.90;;;;;;5072454;28;19917;-74
2021/12/18 00:25:14;;;;;;;;;;;27.70;99.90;;;;;;5072742;28;19938;-73
2021/12/18 00:27:41;;;;;;;;;;;27.70;99.90;;;;;;5072212;28;20264;-76
2021/12/18 00:30:08;;;;;;;;;;;27.70;99.90;;;;;;5072458;28;19920;-73
2021/12/18 00:32:35;;;;;;;;;;;27.70;99.90;;;;;;5071699;28;19999;-73
2021/12/18 00:35:01;;;;;;;;;;;27.80;99.90;;;;;;5060901;28;19919;-74
2021/12/18 00:37:28;;;;;;;;;;;28.10;99.90;;;;;;5072351;28;19938;-73
2021/12/18 00:39:57;;;;;;;;;;;28.60;99.90;;;;;;5072288;28;19912;-74
2021/12/18 00:42:38;;;;;;;;;;;29.20;99.90;;;;;;5072502;28;19917;-74
2021/12/18 00:45:06;;;;;;;;;;;29.80;99.90;;;;;;5060716;28;19920;-74
2021/12/18 00:47:33;;;;;;;;;;;30.20;99.90;;;;;;5071843;28;19935;-76
2021/12/18 00:50:00;;;;;;;;;;;30.50;99.90;;;;;;5072040;28;19912;-73
2021/12/18 00:52:26;;;;;;;;;;;31.00;99.90;;;;;;5072152;28;20351;-73
2021/12/18 00:54:54;;;;;;;;;;;31.10;99.90;;;;;;5072088;28;20394;-74
2021/12/18 00:57:20;;;;;;;;;;;31.00;99.90;;;;;;5072171;28;19923;-75
2021/12/18 00:59:49;;;;;;;;;;;30.70;99.90;;;;;;5071550;28;19999;-74
2021/12/18 01:02:15;;;;;;;;;;;31.00;99.90;;;;;;5071772;28;19919;-73
2021/12/18 01:04:42;;;;;;;;;;;31.20;99.90;;;;;;5071260;28;19912;-74
2021/12/18 01:07:09;;;;;;;;;;;31.20;99.90;;;;;;5071525;28;19920;-73
2021/12/18 01:12:11;;;;;;;;;;;31.80;99.90;;;;;;5061161;28;19916;-74
2021/12/18 01:15:02;;;;;;;;;;;31.80;99.90;;;;;;5067871;28;19913;-73
2021/12/18 01:22:47;;;;;;;;;;;30.90;99.90;;;;;;5069570;28;19922;-73
2021/12/18 01:25:19;;;;;;;;;;;30.80;99.90;;;;;;5057773;28;19922;-73
2021/12/18 01:27:46;;;;;;;;;;;30.70;99.90;;;;;;5071241;28;19916;-73
2021/12/18 01:30:14;;;;;;;;;;;30.60;99.90;;;;;;5060514;28;19923;-73
2021/12/18 01:32:41;;;;;;;;;;;30.50;99.90;;;;;;5071303;28;19951;-75
2021/12/18 01:35:09;;;;;;;;;;;30.10;99.90;;;;;;5069816;28;19912;-75
2021/12/18 01:37:36;;;;;;;;;;;29.90;99.90;;;;;;5070168;28;19916;-75
2021/12/18 01:40:03;;;;;;;;;;;29.80;99.90;;;;;;5068499;28;19964;-74
2021/12/18 01:53:11;;;;;;;;;;;29.50;99.90;;;;;;5068741;28;19928;-72
2021/12/18 01:55:39;;;;;;;;;;;29.40;99.90;;;;;;5069336;28;20283;-74
2021/12/18 01:58:06;;;;;;;;;;;29.40;99.90;;;;;;5069234;28;19917;-72
2021/12/18 02:00:35;;;;;;;;;;;29.20;99.90;;;;;;5069568;28;20291;-74
2021/12/18 02:03:03;;;;;;;;;;;29.00;99.90;;;;;;5067233;28;19920;-74
2021/12/18 02:05:30;;;;;;;;;;;28.90;99.90;;;;;;5058550;28;19963;-73
2021/12/18 02:07:57;;;;;;;;;;;28.90;99.90;;;;;;5056740;28;19920;-73
2021/12/18 02:10:28;;;;;;;;;;;28.90;99.90;;;;;;5069159;28;20011;-73
2021/12/18 02:20:59;;;;;;;;;;;29.10;99.90;;;;;;5073469;28;19958;-74
2021/12/18 02:23:26;;;;;;;;;;;29.30;99.90;;;;;;5072444;28;19916;-74
2021/12/18 02:25:53;;;;;;;;;;;29.30;99.90;;;;;;5072567;28;19947;-73
2021/12/18 02:28:25;;;;;;;;;;;29.20;99.90;;;;;;5072335;28;19999;-73
2021/12/18 02:30:53;;;;;;;;;;;29.00;99.90;;;;;;5072387;28;19920;-73
2021/12/18 02:33:21;;;;;;;;;;;29.00;99.90;;;;;;5072189;28;19917;-73
2021/12/18 02:35:53;;;;;;;;;;;29.00;99.90;;;;;;5072677;28;20298;-73
2021/12/18 02:38:31;;;;;;;;;;;29.00;99.90;;;;;;5071121;28;19916;-72
2021/12/18 02:41:06;;;;;;;;;;;28.90;99.90;;;;;;5062730;28;19916;-73
2021/12/18 02:43:35;;;;;;;;;;;28.90;99.90;;;;;;5071766;28;19916;-73
2021/12/18 02:46:06;;;;;;;;;;;28.80;99.90;;;;;;5072567;28;19959;-74
2021/12/18 02:48:34;;;;;;;;;;;28.80;99.90;;;;;;5072185;28;19920;-73
2021/12/18 02:51:02;;;;;;;;;;;28.90;99.90;;;;;;5072449;28;19957;-73
2021/12/18 02:53:28;;;;;;;;;;;29.10;99.90;;;;;;5071976;28;20057;-74
2021/12/18 02:56:00;;;;;;;;;;;29.10;99.90;;;;;;5072350;28;19912;-72
2021/12/18 02:58:27;;;;;;;;;;;29.20;99.90;;;;;;5056220;28;19921;-73
2021/12/18 03:00:55;;;;;;;;;;;29.30;99.90;;;;;;5054491;28;19970;-74
2021/12/18 03:03:26;;;;;;;;;;;29.40;99.90;;;;;;5055575;28;20738;-73
2021/12/18 03:08:55;;;;;;;;;;;29.50;99.90;;;;;;5071785;28;20046;-74
2021/12/18 03:25:24;;;;;;;;;;;29.80;99.90;;;;;;5051099;28;20011;-75
2021/12/18 03:27:52;;;;;;;;;;;29.70;99.90;;;;;;5071423;28;20422;-73
2021/12/18 03:30:19;;;;;;;;;;;29.60;99.90;;;;;;5070563;28;19916;-73
2021/12/18 03:32:46;;;;;;;;;;;29.60;99.90;;;;;;5071566;28;19912;-73
2021/12/18 03:35:13;;;;;;;;;;;29.50;99.90;;;;;;5071117;28;19958;-74
2021/12/18 03:37:40;;;;;;;;;;;29.40;99.90;;;;;;5071086;28;20450;-74
2021/12/18 03:40:09;;;;;;;;;;;29.50;99.90;;;;;;5070720;28;19920;-74
2021/12/18 03:42:36;;;;;;;;;;;29.50;99.90;;;;;;5067009;28;20464;-75
2021/12/18 03:45:03;;;;;;;;;;;29.30;99.90;;;;;;5068899;28;20793;-72
2021/12/18 03:47:30;;;;;;;;;;;29.40;99.90;;;;;;5070815;28;19917;-74
2021/12/18 03:49:57;;;;;;;;;;;29.30;99.90;;;;;;5070123;28;19927;-76
2021/12/18 03:52:23;;;;;;;;;;;29.30;99.90;;;;;;5071125;28;19956;-73
2021/12/18 03:54:50;;;;;;;;;;;29.10;99.90;;;;;;5070435;28;19912;-73
2021/12/18 03:57:17;;;;;;;;;;;29.10;99.90;;;;;;5070650;28;19912;-74
2021/12/18 03:59:44;;;;;;;;;;;29.10;99.90;;;;;;5070855;28;19912;-73
2021/12/18 04:02:11;;;;;;;;;;;29.00;99.90;;;;;;5070077;28;19912;-74
2021/12/18 04:04:37;;;;;;;;;;;29.00;99.90;;;;;;5071024;28;19916;-73
2021/12/18 04:07:06;;;;;;;;;;;29.00;99.90;;;;;;5070410;28;19974;-74
2021/12/18 04:09:34;;;;;;;;;;;29.00;99.90;;;;;;5062270;28;20002;-73
2021/12/18 04:12:00;;;;;;;;;;;29.10;99.90;;;;;;5084292;28;19917;-73
2021/12/18 04:14:27;;;;;;;;;;;29.10;99.90;;;;;;5061958;28;20038;-74
2021/12/18 04:16:54;;;;;;;;;;;29.20;99.90;;;;;;5069981;28;19916;-73
2021/12/18 04:19:21;;;;;;;;;;;29.10;99.90;;;;;;5070751;28;20010;-74
2021/12/18 04:21:47;;;;;;;;;;;29.00;99.90;;;;;;5070268;28;20006;-74
2021/12/18 04:24:14;;;;;;;;;;;29.00;99.90;;;;;;5062810;28;19974;-73
2021/12/18 04:26:41;;;;;;;;;;;28.90;99.90;;;;;;5065361;28;20381;-73
2021/12/18 04:29:08;;;;;;;;;;;28.70;99.90;;;;;;5070426;28;19919;-74
2021/12/18 04:31:36;;;;;;;;;;;28.60;99.90;;;;;;5070300;28;19912;-76
2021/12/18 04:34:03;;;;;;;;;;;28.50;99.90;;;;;;5070188;28;19999;-73
2021/12/18 04:36:29;;;;;;;;;;;28.40;99.90;;;;;;5070300;28;20302;-73
2021/12/18 04:38:56;;;;;;;;;;;28.40;99.90;;;;;;5069180;28;19919;-73
2021/12/18 04:41:35;;;;;;;;;;;28.50;99.90;;;;;;5069265;28;20050;-74
2021/12/18 04:44:02;;;;;;;;;;;28.50;99.90;;;;;;5069663;28;20422;-73
2021/12/18 04:46:29;;;;;;;;;;;28.80;99.90;;;;;;5070426;28;19926;-74
2021/12/18 04:48:55;;;;;;;;;;;28.90;99.90;;;;;;5069905;28;19916;-74
2021/12/18 04:51:22;;;;;;;;;;;28.90;99.90;;;;;;5070379;28;20271;-74
2021/12/18 04:53:49;;;;;;;;;;;28.80;99.90;;;;;;5069642;28;20374;-75
2021/12/18 04:56:15;;;;;;;;;;;28.90;99.90;;;;;;5070371;28;19919;-73
2021/12/18 04:58:42;;;;;;;;;;;29.00;99.90;;;;;;5069883;28;19912;-74
2021/12/18 05:01:08;;;;;;;;;;;29.00;99.90;;;;;;5070140;28;19923;-73
2021/12/18 05:03:38;;;;;;;;;;;29.20;99.90;;;;;;5069676;28;19920;-73
2021/12/18 05:06:05;;;;;;;;;;;29.20;99.90;;;;;;5069852;28;19930;-74
2021/12/18 05:08:31;;;;;;;;;;;29.10;99.90;;;;;;5069137;28;20292;-73
2021/12/18 05:10:58;;;;;;;;;;;29.10;99.90;;;;;;5070172;28;20378;-73
2021/12/18 05:13:25;;;;;;;;;;;29.00;99.90;;;;;;5069428;28;20506;-73
2021/12/18 05:15:51;;;;;;;;;;;29.10;99.90;;;;;;5069557;28;19921;-73
2021/12/18 05:18:18;;;;;;;;;;;29.10;99.90;;;;;;5070033;28;19916;-74
2021/12/18 05:20:45;;;;;;;;;;;29.10;99.90;;;;;;5070102;28;19962;-74
2021/12/18 05:23:11;;;;;;;;;;;29.10;99.90;;;;;;5065086;28;19920;-72
2021/12/18 05:25:38;;;;;;;;;;;29.10;99.90;;;;;;5057263;28;19932;-73
2021/12/18 05:28:05;;;;;;;;;;;29.10;99.90;;;;;;5069583;28;19923;-73
2021/12/18 05:30:31;;;;;;;;;;;29.10;99.90;;;;;;5069297;28;19928;-73
2021/12/18 05:32:58;;;;;;;;;;;29.00;99.90;;;;;;5069555;28;19917;-73
2021/12/18 05:35:25;;;;;;;;;;;28.90;99.90;;;;;;5069312;28;19966;-74
2021/12/18 05:37:54;;;;;;;;;;;28.80;99.90;;;;;;5069939;28;20431;-73
2021/12/18 05:40:25;;;;;;;;;;;28.70;99.90;;;;;;5057419;28;20007;-73
2021/12/18 05:42:52;;;;;;;;;;;28.80;99.90;;;;;;5069839;28;20023;-73
2021/12/18 05:45:19;;;;;;;;;;;28.80;99.90;;;;;;5069179;28;20543;-73
2021/12/18 05:47:47;;;;;;;;;;;28.80;99.90;;;;;;5069186;28;19943;-72
2021/12/18 05:50:14;;;;;;;;;;;28.80;99.90;;;;;;5069339;28;19922;-74
2021/12/18 05:52:41;;;;;;;;;;;28.90;99.90;;;;;;5070768;28;20415;-73
2021/12/18 05:55:09;;;;;;;;;;;28.90;99.90;;;;;;5073200;28;19920;-73
2021/12/18 05:57:35;;;;;;;;;;;28.80;99.90;;;;;;5072657;28;19920;-74
2021/12/18 06:00:04;;;;;;;;;;;28.70;99.90;;;;;;5072967;28;20378;-73
2021/12/18 06:02:31;;;;;;;;;;;28.70;99.90;;;;;;5068195;28;19936;-73
2021/12/18 06:04:57;;;;;;;;;;;28.40;99.90;;;;;;5055461;28;19923;-73
2021/12/18 06:07:33;;;;;;;;;;;28.30;99.90;;;;;;5068883;28;19992;-73
2021/12/18 06:10:00;;;;;;;;;;;28.20;99.90;;;;;;5066119;28;20496;-73
2021/12/18 06:12:26;;;;;;;;;;;28.10;99.90;;;;;;5060767;28;20018;-74
2021/12/18 06:14:53;;;;;;;;;;;28.10;99.90;;;;;;5073514;28;19938;-73
2021/12/18 06:17:20;;;;;;;;;;;28.00;99.90;;;;;;5072524;28;20155;-73
2021/12/18 06:19:47;;;;;;;;;;;28.10;99.90;;;;;;5072813;28;20256;-73
2021/12/18 06:22:13;;;;;;;;;;;28.20;99.90;;;;;;5072265;28;20502;-72
2021/12/18 06:24:40;;;;;;;;;;;28.30;99.90;;;;;;5072870;28;19935;-73
2021/12/18 06:27:07;;;;;;;;;;;28.30;99.90;;;;;;5071821;28;20462;-74
2021/12/18 06:29:34;;;;;;;;;;;28.30;99.90;;;;;;5072781;28;19919;-73
2021/12/18 06:32:01;;;;;;;;;;;28.30;99.90;;;;;;5072242;28;19920;-73
2021/12/18 06:34:27;;;;;;;;;;;28.40;99.90;;;;;;5060932;28;19917;-73
2021/12/18 06:36:54;;;;;;;;;;;28.50;99.90;;;;;;5072310;28;19976;-73
2021/12/18 06:39:21;;;;;;;;;;;28.50;99.90;;;;;;5072065;28;20375;-73
2021/12/18 06:41:48;;;;;;;;;;;28.50;99.90;;;;;;5072478;28;19924;-73
2021/12/18 06:44:15;;;;;;;;;;;28.40;99.90;;;;;;5071998;28;19916;-73
2021/12/18 06:46:42;;;;;;;;;;;28.40;99.90;;;;;;5072404;28;20035;-73
2021/12/18 06:49:10;;;;;;;;;;;28.30;99.90;;;;;;5071981;28;19917;-73
2021/12/18 06:51:37;;;;;;;;;;;28.30;99.90;;;;;;5072252;28;20007;-73
2021/12/18 06:54:04;;;;;;;;;;;28.30;99.90;;;;;;5071848;28;19913;-73
2021/12/18 06:56:30;;;;;;;;;;;28.40;99.90;;;;;;5072474;28;19919;-73
2021/12/18 06:58:57;;;;;;;;;;;28.30;99.90;;;;;;5071777;28;20283;-74
2021/12/18 07:01:24;;;;;;;;;;;28.20;99.90;;;;;;5072302;28;20371;-74
2021/12/18 07:03:50;;;;;;;;;;;28.20;99.90;;;;;;5069057;28;19912;-74
2021/12/18 07:06:17;;;;;;;;;;;28.20;99.90;;;;;;5071655;28;19924;-74
2021/12/18 07:08:44;;;;;;;;;;;28.20;99.90;;;;;;5071632;28;19951;-76
2021/12/18 07:11:10;;;;;;;;;;;28.20;99.90;;;;;;5072186;28;19958;-74
2021/12/18 07:13:37;;;;;;;;;;;28.20;99.90;;;;;;5072172;28;19913;-76
2021/12/18 07:16:04;;;;;;;;;;;28.20;99.90;;;;;;5071490;28;19912;-74
2021/12/18 07:18:31;;;;;;;;;;;28.20;99.90;;;;;;5071420;28;20006;-76
2021/12/18 07:20:58;;;;;;;;;;;28.10;99.90;;;;;;5071425;28;20302;-77
2021/12/18 07:23:24;;;;;;;;;;;28.00;99.90;;;;;;5071914;28;19919;-76
2021/12/18 07:25:51;;;;;;;;;;;28.00;99.90;;;;;;5070853;28;19925;-76
2021/12/18 07:28:18;;;;;;;;;;;28.00;99.90;;;;;;5071776;28;20009;-74
2021/12/18 07:30:44;;;;;;;;;;;27.90;99.90;;;;;;5070911;28;19912;-74
2021/12/18 07:33:11;;;;;;;;;;;27.90;99.90;;;;;;5071666;28;19919;-76
2021/12/18 07:35:38;;;;;;;;;;;28.00;99.90;;;;;;5070780;28;19917;-76
2021/12/18 07:38:05;;;;;;;;;;;28.10;99.90;;;;;;5071326;28;19916;-76
2021/12/18 07:40:32;;;;;;;;;;;28.00;99.90;;;;;;5070923;28;20278;-76
2021/12/18 07:42:58;;;;;;;;;;;28.00;99.90;;;;;;5071610;28;19913;-76
2021/12/18 07:45:25;;;;;;;;;;;28.00;99.90;;;;;;5073083;28;19908;-76
2021/12/18 07:47:52;;;;;;;;;;;28.00;99.90;;;;;;5072838;28;19912;-76
2021/12/18 07:50:20;;;;;;;;;;;28.00;99.90;;;;;;5073411;28;19966;-76
2021/12/18 07:52:47;;;;;;;;;;;27.90;99.90;;;;;;5073140;28;19956;-77
2021/12/18 07:55:14;;;;;;;;;;;27.80;99.90;;;;;;5073550;28;19916;-77
2021/12/18 07:57:41;;;;;;;;;;;27.70;99.90;;;;;;5072882;28;19918;-76
2021/12/18 08:00:10;;;;;;;;;;;27.70;99.90;;;;;;5073151;28;19919;-76
2021/12/18 08:02:37;;;;;;;;;;;27.60;99.90;;;;;;5073183;28;19956;-76
2021/12/18 08:05:03;;;;;;;;;;;27.50;99.90;;;;;;5073897;28;19909;-76
2021/12/18 08:07:30;;;;;;;;;;;27.40;99.90;;;;;;5067885;28;19916;-77
2021/12/18 08:09:57;;;;;;;;;;;27.40;99.90;;;;;;5070225;28;20295;-76
2021/12/18 08:12:23;;;;;;;;;;;27.30;99.90;;;;;;5072863;28;19920;-76
2021/12/18 08:14:50;;;;;;;;;;;27.10;99.90;;;;;;5073425;28;20359;-74
2021/12/18 08:17:17;;;;;;;;;;;27.00;99.90;;;;;;5075394;28;20378;-75
2021/12/18 08:19:43;;;;;;;;;;;27.00;99.90;;;;;;5073023;28;20270;-76
2021/12/18 08:22:10;;;;;;;;;;;27.00;99.90;;;;;;5060666;28;20059;-75
2021/12/18 08:24:37;;;;;;;;;;;26.90;99.90;;;;;;5072160;28;19913;-75
2021/12/18 08:27:03;;;;;;;;;;;26.90;99.90;;;;;;5072626;28;19947;-76
2021/12/18 08:29:30;;;;;;;;;;;26.80;99.90;;;;;;5072143;28;19943;-75
2021/12/18 08:31:56;;;;;;;;;;;26.70;99.90;;;;;;5072683;28;20333;-76
2021/12/18 08:34:24;;;;;;;;;;;26.70;99.90;;;;;;5061979;28;20011;-76
2021/12/18 08:36:51;;;;;;;;;;;26.60;99.90;;;;;;5062813;28;19920;-76
2021/12/18 08:39:18;;;;;;;;;;;26.60;99.90;;;;;;5070696;28;20579;-76
2021/12/18 08:41:46;;;;;;;;;;;26.50;99.90;;;;;;5072416;28;19960;-76
2021/12/18 08:44:13;;;;;;;;;;;26.40;99.90;;;;;;5072226;28;19931;-76
2021/12/18 08:46:40;;;;;;;;;;;26.40;99.90;;;;;;5072375;28;19920;-76
2021/12/18 08:49:07;;;;;;;;;;;26.30;99.90;;;;;;5071973;28;19945;-76
2021/12/18 08:51:35;;;;;;;;;;;26.30;99.90;;;;;;5072417;28;20397;-76
2021/12/18 08:54:02;;;;;;;;;;;26.30;99.90;;;;;;5071515;28;19912;-76
2021/12/18 08:56:29;;;;;;;;;;;26.20;99.90;;;;;;5072162;28;20011;-75
2021/12/18 08:58:56;;;;;;;;;;;26.20;99.90;;;;;;5072054;28;19913;-76
2021/12/18 09:01:24;;;;;;;;;;;26.20;99.90;;;;;;5071980;28;19966;-76
2021/12/18 09:03:51;;;;;;;;;;;26.20;99.90;;;;;;5071825;28;20275;-75
2021/12/18 09:06:18;;;;;;;;;;;26.20;99.90;;;;;;5070632;28;20287;-76
2021/12/18 09:08:44;;;;;;;;;;;26.10;99.90;;;;;;5071955;28;19923;-76
2021/12/18 09:11:11;;;;;;;;;;;26.10;99.90;;;;;;5071743;28;19912;-76
2021/12/18 09:13:38;;;;;;;;;;;26.10;99.90;;;;;;5072009;28;19916;-76
2021/12/18 09:16:05;;;;;;;;;;;26.10;99.90;;;;;;5071237;28;20290;-76
2021/12/18 09:18:31;;;;;;;;;;;26.00;99.90;;;;;;5072316;28;19912;-77
2021/12/18 09:20:58;;;;;;;;;;;26.10;99.90;;;;;;5071947;28;20054;-76
2021/12/18 09:23:25;;;;;;;;;;;26.10;99.90;;;;;;5072110;28;19973;-76
2021/12/18 09:25:52;;;;;;;;;;;26.10;99.90;;;;;;5071364;28;19943;-76
2021/12/18 09:28:19;;;;;;;;;;;26.10;99.90;;;;;;5071402;28;19917;-77
2021/12/18 09:30:45;;;;;;;;;;;26.00;99.90;;;;;;5071475;28;19919;-72
2021/12/18 09:33:13;;;;;;;;;;;26.00;99.90;;;;;;5060136;28;19919;-76
2021/12/18 09:35:40;;;;;;;;;;;26.00;99.90;;;;;;5071546;28;19912;-76
2021/12/18 09:38:07;;;;;;;;;;;26.00;99.90;;;;;;5070944;28;19913;-73
2021/12/18 09:40:34;;;;;;;;;;;26.00;99.90;;;;;;5072101;28;19991;-73
2021/12/18 09:43:00;;;;;;;;;;;26.00;99.90;;;;;;5071517;28;19958;-73
2021/12/18 09:45:27;;;;;;;;;;;26.00;99.90;;;;;;5071485;28;19916;-72
2021/12/18 09:47:54;;;;;;;;;;;26.10;99.90;;;;;;5071180;28;19913;-73
2021/12/18 09:50:22;;;;;;;;;;;26.10;99.90;;;;;;5071771;28;19912;-73
2021/12/18 09:52:48;;;;;;;;;;;26.00;99.90;;;;;;5071225;28;19913;-72
2021/12/18 09:55:15;;;;;;;;;;;26.00;99.90;;;;;;5071573;28;19912;-73
2021/12/18 09:57:42;;;;;;;;;;;26.10;99.90;;;;;;5071249;28;21161;-72
2021/12/18 10:00:10;;;;;;;;;;;26.10;99.90;;;;;;5071687;28;19913;-74
2021/12/18 10:02:38;;;;;;;;;;;26.10;99.90;;;;;;5071216;28;19916;-73
2021/12/18 10:05:06;;;;;;;;;;;26.10;99.90;;;;;;5064511;28;20006;-73
2021/12/18 10:07:33;;;;;;;;;;;26.10;99.90;;;;;;5066093;28;19924;-73
2021/12/18 10:10:00;;;;;;;;;;;26.10;99.90;;;;;;5071052;28;19940;-73
2021/12/18 10:12:28;;;;;;;;;;;26.10;99.90;;;;;;5071110;28;19919;-74
2021/12/18 10:15:02;;;;;;;;;;;26.10;99.90;;;;;;5071032;28;19987;-74
2021/12/18 10:17:37;;;;;;;;;;;26.10;99.90;;;;;;5070852;28;20261;-74
2021/12/18 10:20:09;;;;;;;;;;;26.10;99.90;;;;;;5059572;28;19919;-72
2021/12/18 10:22:37;;;;;;;;;;;26.10;99.90;;;;;;5070918;28;19913;-73
2021/12/18 10:25:07;;;;;;;;;;;26.10;99.90;;;;;;5059524;28;19919;-72
2021/12/18 10:27:36;;;;;;;;;;;26.10;99.90;;;;;;5070859;28;20367;-73
2021/12/18 10:30:12;;;;;;;;;;;26.10;99.90;;;;;;5070837;28;19912;-73
2021/12/18 10:32:39;;;;;;;;;;;26.10;99.90;;;;;;5070905;28;20007;-72
2021/12/18 10:35:06;;;;;;;;;;;26.10;99.90;;;;;;5059326;28;19912;-74
2021/12/18 10:37:34;;;;;;;;;;;26.00;99.90;;;;;;5070719;28;20021;-73
2021/12/18 10:40:08;;;;;;;;;;;26.00;99.90;;;;;;5074081;28;20254;-73
2021/12/18 10:42:39;;;;;;;;;;;26.00;99.90;;;;;;5074400;28;19908;-75
2021/12/18 10:45:09;;;;;;;;;;;26.00;99.90;;;;;;5055301;28;20360;-73
2021/12/18 10:47:43;;;;;;;;;;;25.90;99.90;;;;;;5065082;28;19917;-73
2021/12/18 10:50:22;;;;;;;;;;;25.90;99.90;;;;;;5069816;28;19920;-71
2021/12/18 10:52:55;;;;;;;;;;;25.90;99.90;;;;;;5074450;28;19920;-72
2021/12/18 10:55:32;;;;;;;;;;;25.80;99.90;;;;;;5068667;28;20382;-72
2021/12/18 10:57:59;;;;;;;;;;;25.80;99.90;;;;;;5073734;28;19916;-72
2021/12/18 11:00:33;;;;;;;;;;;25.80;99.90;;;;;;5074258;28;19912;-72
2021/12/18 11:03:12;;;;;;;;;;;25.80;99.90;;;;;;5073784;28;19923;-72
2021/12/18 11:05:39;;;;;;;;;;;25.80;99.90;;;;;;5074199;28;19924;-73
2021/12/18 11:08:10;;;;;;;;;;;25.80;99.90;;;;;;5073020;28;19913;-72
2021/12/18 11:10:42;;;;;;;;;;;25.80;99.90;;;;;;5074017;28;20011;-72
2021/12/18 11:15:54;;;;;;;;;;;25.80;99.90;;;;;;5074091;28;20038;-75
2021/12/18 11:18:21;;;;;;;;;;;25.80;99.90;;;;;;5073719;28;19912;-75
2021/12/18 11:20:51;;;;;;;;;;;25.80;99.90;;;;;;5074012;28;20016;-76
2021/12/18 11:23:26;;;;;;;;;;;25.80;99.90;;;;;;5072905;28;19917;-73
2021/12/18 11:25:54;;;;;;;;;;;25.70;99.90;;;;;;5073928;28;19927;-73
2021/12/18 11:28:22;;;;;;;;;;;25.70;99.90;;;;;;5073460;28;19913;-75
2021/12/18 11:30:50;;;;;;;;;;;25.70;99.90;;;;;;5073708;28;20050;-73
2021/12/18 11:33:17;;;;;;;;;;;25.70;99.90;;;;;;5073371;28;19917;-74
2021/12/18 11:35:44;;;;;;;;;;;25.70;99.90;;;;;;5073944;28;19920;-73
2021/12/18 11:38:12;;;;;;;;;;;25.70;99.90;;;;;;5072608;28;20005;-72
2021/12/18 11:40:40;;;;;;;;;;;25.70;99.90;;;;;;5073826;28;19913;-73
2021/12/18 11:43:07;;;;;;;;;;;25.80;99.90;;;;;;5073074;28;19912;-73
2021/12/18 11:45:36;;;;;;;;;;;25.80;99.90;;;;;;5073476;28;19912;-73
2021/12/18 11:48:04;;;;;;;;;;;25.80;99.90;;;;;;5073209;28;20527;-73
2021/12/18 11:50:35;;;;;;;;;;;25.80;99.90;;;;;;5072962;28;19913;-72
2021/12/18 11:53:02;;;;;;;;;;;25.80;99.90;;;;;;5072403;28;20383;-73
2021/12/18 11:55:48;;;;;;;;;;;25.70;99.90;;;;;;5073556;28;19919;-72
2021/12/18 11:58:22;;;;;;;;;;;25.70;99.90;;;;;;5073969;28;20002;-73
2021/12/18 12:00:51;;;;;;;;;;;25.60;99.90;;;;;;5073329;28;19912;-72
2021/12/18 12:03:33;;;;;;;;;;;25.70;99.90;;;;;;5072835;28;19920;-75
2021/12/18 12:06:01;;;;;;;;;;;25.70;99.90;;;;;;5073123;28;19924;-75
2021/12/18 12:08:38;;;;;;;;;;;25.70;99.90;;;;;;5072133;28;19917;-74
2021/12/18 12:11:15;;;;;;;;;;;25.70;99.90;;;;;;5073025;28;19923;-73
2021/12/18 12:14:00;;;;;;;;;;;25.70;99.90;;;;;;5061131;28;20264;-72
2021/12/18 12:16:48;;;;;;;;;;;25.70;99.90;;;;;;5072276;28;19921;-73
2021/12/18 12:19:25;;;;;;;;;;;25.90;99.90;;;;;;5072972;28;19919;-73
2021/12/18 12:21:53;;;;;;;;;;;26.20;99.90;;;;;;5071717;28;20002;-72
2021/12/18 12:24:21;;;;;;;;;;;26.60;99.90;;;;;;5072825;28;20050;-72
2021/12/18 12:26:48;;;;;;;;;;;26.70;99.90;;;;;;5071690;28;19924;-72
2021/12/18 12:29:15;;;;;;;;;;;26.70;99.90;;;;;;5072518;28;19912;-72
2021/12/18 12:31:55;;;;;;;;;;;26.50;99.90;;;;;;5071976;28;19939;-72
2021/12/18 12:34:24;;;;;;;;;;;26.30;99.90;;;;;;5072495;28;19936;-72
2021/12/18 12:36:57;;;;;;;;;;;26.20;99.90;;;;;;5072040;28;19912;-73
2021/12/18 12:39:25;;;;;;;;;;;26.00;99.90;;;;;;5072516;28;19916;-73
2021/12/18 12:41:52;;;;;;;;;;;25.90;99.90;;;;;;5071565;28;19912;-73
2021/12/18 12:44:22;;;;;;;;;;;25.60;99.90;;;;;;5072381;28;20405;-73
2021/12/18 12:46:48;;;;;;;;;;;25.00;99.90;;;;;;5071455;28;20024;-76
2021/12/18 12:49:18;;;;;;;;;;;24.20;99.90;;;;;;5072081;28;19917;-74
2021/12/18 12:52:04;;;;;;;;;;;23.30;99.90;;;;;;5071607;28;19919;-75
2021/12/18 12:54:46;;;;;;;;;;;22.60;99.90;;;;;;5072020;28;19916;-76
2021/12/18 12:57:22;;;;;;;;;;;22.20;99.90;;;;;;5060904;28;20209;-77
2021/12/18 12:59:49;;;;;;;;;;;22.00;99.90;;;;;;5071586;28;19912;-76
2021/12/18 13:02:16;;;;;;;;;;;21.80;99.90;;;;;;5071262;28;19912;-75
2021/12/18 13:04:43;;;;;;;;;;;21.80;99.90;;;;;;5071477;28;19912;-77
2021/12/18 13:07:10;;;;;;;;;;;21.90;99.90;;;;;;5072066;28;20286;-76
2021/12/18 13:09:44;;;;;;;;;;;22.10;99.90;;;;;;5071712;28;19927;-77
2021/12/18 13:12:11;;;;;;;;;;;22.10;99.90;;;;;;5071845;28;19912;-78
2021/12/18 13:14:42;;;;;;;;;;;22.00;99.90;;;;;;5071468;28;19919;-80
2021/12/18 13:17:18;;;;;;;;;;;21.90;99.90;;;;;;5071834;28;19960;-78
2021/12/18 13:19:55;;;;;;;;;;;21.80;99.90;;;;;;5071631;28;19909;-76
2021/12/18 13:22:24;;;;;;;;;;;21.80;99.90;;;;;;5061045;28;19912;-77
2021/12/18 13:25:11;;;;;;;;;;;21.90;99.90;;;;;;5071240;28;19909;-77
2021/12/18 13:27:39;;;;;;;;;;;22.00;99.90;;;;;;5071832;28;20282;-76
2021/12/18 13:30:16;;;;;;;;;;;21.90;99.90;;;;;;5069292;28;19968;-76
2021/12/18 13:32:53;;;;;;;;;;;22.00;99.90;;;;;;5072639;28;19912;-78
2021/12/18 13:35:20;;;;;;;;;;;22.10;99.90;;;;;;5057099;28;19916;-76
2021/12/18 13:38:00;;;;;;;;;;;22.00;99.90;;;;;;5068873;28;19916;-76
2021/12/18 13:40:28;;;;;;;;;;;22.00;99.90;;;;;;5071420;28;19912;-76
2021/12/18 13:43:05;;;;;;;;;;;22.10;99.90;;;;;;5071624;28;19930;-78
2021/12/18 13:45:33;;;;;;;;;;;22.10;99.90;;;;;;5071156;28;19917;-77
2021/12/18 13:48:04;;;;;;;;;;;22.10;99.90;;;;;;5071314;28;19916;-78
2021/12/18 13:50:31;;;;;;;;;;;22.10;99.90;;;;;;5071503;28;20271;-79
2021/12/18 13:52:59;;;;;;;;;;;22.10;99.90;;;;;;5071519;28;19958;-79
2021/12/18 13:55:36;;;;;;;;;;;22.10;99.90;;;;;;5070817;28;20003;-77
2021/12/18 13:58:06;;;;;;;;;;;22.10;99.90;;;;;;5071373;28;20359;-78
2021/12/18 14:00:46;;;;;;;;;;;22.10;99.90;;;;;;5103427;28;20275;-78
2021/12/18 14:03:24;;;;;;;;;;;22.10;99.90;;;;;;5071070;28;19912;-79
2021/12/18 14:05:51;;;;;;;;;;;22.20;99.90;;;;;;5071281;28;20440;-78
2021/12/18 14:08:18;;;;;;;;;;;22.20;99.90;;;;;;5071008;28;19912;-77
2021/12/18 14:10:45;;;;;;;;;;;22.20;99.90;;;;;;5071252;28;19944;-78
2021/12/18 14:13:12;;;;;;;;;;;22.30;99.90;;;;;;5071448;28;19920;-76
2021/12/18 14:15:39;;;;;;;;;;;22.30;99.90;;;;;;5074522;28;20310;-77
2021/12/18 14:18:23;;;;;;;;;;;22.30;99.90;;;;;;5074879;28;20294;-78
2021/12/18 14:20:50;;;;;;;;;;;22.20;99.90;;;;;;5075064;28;19918;-78
2021/12/18 14:23:16;;;;;;;;;;;22.20;99.90;;;;;;5074667;28;19928;-78
2021/12/18 14:25:43;;;;;;;;;;;22.30;99.90;;;;;;5074763;28;19959;-79
2021/12/18 14:28:17;;;;;;;;;;;22.30;99.90;;;;;;5074626;28;19994;-78
2021/12/18 14:30:46;;;;;;;;;;;22.30;99.90;;;;;;5074482;28;19958;-79
2021/12/18 14:33:17;;;;;;;;;;;22.40;99.90;;;;;;5074490;28;19919;-79
2021/12/18 14:35:50;;;;;;;;;;;22.50;99.90;;;;;;5074648;28;20363;-78
2021/12/18 14:38:18;;;;;;;;;;;22.50;99.90;;;;;;5074400;28;19960;-77
2021/12/18 14:40:45;;;;;;;;;;;22.40;99.90;;;;;;5074570;28;19992;-77
2021/12/18 14:43:14;;;;;;;;;;;22.40;99.90;;;;;;5074514;28;20025;-77
2021/12/18 14:45:41;;;;;;;;;;;22.30;99.90;;;;;;5074264;28;19912;-77
2021/12/18 14:48:08;;;;;;;;;;;22.20;99.90;;;;;;5074390;28;20322;-78
2021/12/18 14:50:44;;;;;;;;;;;22.20;99.90;;;;;;5073981;28;19916;-77
2021/12/18 14:53:13;;;;;;;;;;;22.10;99.90;;;;;;5074386;28;20003;-77
2021/12/18 14:55:45;;;;;;;;;;;22.10;99.90;;;;;;5073962;28;19916;-78
2021/12/18 14:58:31;;;;;;;;;;;22.00;99.90;;;;;;5074480;28;19913;-77
2021/12/18 15:00:58;;;;;;;;;;;22.00;99.90;;;;;;5063332;28;19916;-77
2021/12/18 15:03:32;;;;;;;;;;;22.00;99.90;;;;;;5073899;28;19919;-78
2021/12/18 15:06:16;;;;;;;;;;;22.00;99.90;;;;;;5063216;28;19920;-78
2021/12/18 15:08:47;;;;;;;;;;;22.00;99.90;;;;;;5073529;28;19920;-79
2021/12/18 15:11:25;;;;;;;;;;;22.00;99.90;;;;;;5074373;28;19919;-77